Time;durP1;ratioP1;P1;durP2;ratioP2;P2;SDS_P1;SDS_P2;PMS_P1;PMS_P2;Temp;Humidity;BMP_temperature;BMP_pressure;BME280_temperature;BME280_humidity;BME280_pressure;Samples;Min_cycle;Max_cycle;Signal;HPM_P1;HPM_P2
2023/03/31 00:01:53;;;;;;;5.82;1.48;;;17.80;63.30;;;;;;2369879;53;20974;-67
2023/03/31 00:04:22;;;;;;;3.92;1.55;;;17.80;63.40;;;;;;2353260;53;21024;-67
2023/03/31 00:06:52;;;;;;;4.20;1.27;;;17.80;63.50;;;;;;2362402;53;21006;-67
2023/03/31 00:09:20;;;;;;;2.35;0.85;;;17.80;63.50;;;;;;2344942;54;21017;-67
2023/03/31 00:11:50;;;;;;;5.62;1.40;;;17.80;63.50;;;;;;2586535;52;20891;-68
2023/03/31 00:14:17;;;;;;;5.30;1.77;;;17.80;63.50;;;;;;2344440;54;20980;-67
2023/03/31 00:16:44;;;;;;;3.95;1.40;;;17.80;63.40;;;;;;2620369;52;21047;-67
2023/03/31 00:19:19;;;;;;;4.50;1.42;;;17.80;63.50;;;;;;2368884;53;20988;-68
2023/03/31 00:21:46;;;;;;;4.47;1.65;;;17.80;63.50;;;;;;2368786;54;20942;-68
2023/03/31 00:24:13;;;;;;;4.12;1.37;;;17.80;63.40;;;;;;2368651;54;21474;-67
2023/03/31 00:26:40;;;;;;;5.50;1.60;;;17.80;63.30;;;;;;2621378;52;20981;-67
2023/03/31 00:29:07;;;;;;;5.07;1.55;;;17.80;63.30;;;;;;2620695;52;20926;-67
2023/03/31 00:31:34;;;;;;;5.65;1.80;;;17.80;63.20;;;;;;2368595;54;20985;-67
2023/03/31 00:34:01;;;;;;;3.35;1.50;;;17.80;63.30;;;;;;2349705;53;21024;-68
2023/03/31 00:36:27;;;;;;;4.03;1.80;;;17.80;63.30;;;;;;2363935;53;21065;-68
2023/03/31 00:39:07;;;;;;;5.40;1.92;;;17.80;63.40;;;;;;2596399;52;20933;-68
2023/03/31 00:41:34;;;;;;;5.53;1.95;;;17.80;62.10;;;;;;2616549;52;20954;-68
2023/03/31 00:44:17;;;;;;;4.20;1.75;;;17.80;62.50;;;;;;2349752;53;21056;-68
2023/03/31 00:47:18;;;;;;;4.22;1.50;;;17.80;62.90;;;;;;2367422;53;20981;-68
2023/03/31 00:49:55;;;;;;;5.50;1.67;;;17.70;61.70;;;;;;2369744;53;21806;-68
2023/03/31 00:52:34;;;;;;;5.85;1.65;;;17.70;63.10;;;;;;2368884;54;20973;-68
2023/03/31 00:55:05;;;;;;;4.40;1.62;;;17.70;63.00;;;;;;2583818;52;20942;-67
2023/03/31 00:57:32;;;;;;;3.20;1.37;;;17.70;63.10;;;;;;2605360;52;20938;-68
2023/03/31 01:00:00;;;;;;;4.53;1.40;;;17.60;63.20;;;;;;2367787;53;21001;-67
2023/03/31 01:02:27;;;;;;;7.55;1.83;;;17.60;63.40;;;;;;2368896;54;21029;-68
2023/03/31 01:04:58;;;;;;;6.75;1.98;;;17.50;63.40;;;;;;2369138;54;21971;-68
2023/03/31 01:07:57;;;;;;;4.15;1.42;;;17.50;63.40;;;;;;2369359;53;21451;-68
2023/03/31 01:10:23;;;;;;;3.72;1.00;;;17.50;62.40;;;;;;2368663;54;21045;-68
2023/03/31 01:12:51;;;;;;;4.85;1.50;;;17.40;63.80;;;;;;2620039;52;21348;-68
2023/03/31 01:15:17;;;;;;;4.87;1.55;;;17.40;63.80;;;;;;2368307;54;20900;-67
2023/03/31 01:17:44;;;;;;;3.78;1.50;;;17.30;63.90;;;;;;2369467;54;21873;-68
2023/03/31 01:23:06;;;;;;;3.70;1.20;;;17.30;64.00;;;;;;2620542;52;20926;-67
2023/03/31 01:26:08;;;;;;;3.70;1.05;;;17.20;62.80;;;;;;2369155;54;20933;-69
2023/03/31 01:28:51;;;;;;;3.93;1.40;;;17.20;63.40;;;;;;2368869;54;20938;-68
2023/03/31 01:31:58;;;;;;;3.55;1.40;;;17.20;63.70;;;;;;2620842;52;20949;-67
2023/03/31 01:34:53;;;;;;;4.10;1.45;;;17.10;63.40;;;;;;2370766;53;20914;-67
2023/03/31 01:44:08;;;;;;;;;;;17.00;63.60;;;;;;2625274;52;20921;-69
2023/03/31 01:47:57;;;;;;;2.00;0.77;;;17.00;63.20;;;;;;2621702;52;20142;-67
2023/03/31 01:50:27;;;;;;;3.95;1.33;;;16.90;64.90;;;;;;2581410;53;20941;-67
2023/03/31 01:55:04;;;;;;;3.85;1.45;;;16.80;64.70;;;;;;2280143;54;1805552;-69
2023/03/31 01:57:50;;;;;;;4.80;1.45;;;16.70;63.90;;;;;;2608668;52;20967;-68
2023/03/31 02:00:17;;;;;;;3.60;1.60;;;16.70;64.20;;;;;;2363694;53;21071;-67
2023/03/31 02:04:49;;;;;;;4.60;1.60;;;16.60;64.90;;;;;;2363420;53;20990;-67
2023/03/31 02:08:03;;;;;;;4.32;1.50;;;16.60;65.00;;;;;;2365183;53;21587;-67
2023/03/31 02:10:30;;;;;;;4.10;1.37;;;16.50;64.90;;;;;;2614259;52;20918;-69
2023/03/31 02:12:57;;;;;;;5.90;1.50;;;16.50;65.10;;;;;;2614176;52;20952;-69
2023/03/31 02:15:26;;;;;;;4.82;1.40;;;16.50;65.30;;;;;;2336222;53;20973;-68
2023/03/31 02:17:54;;;;;;;4.30;1.60;;;16.40;65.20;;;;;;2323651;53;20933;-69
2023/03/31 02:20:20;;;;;;;5.22;1.90;;;16.40;65.20;;;;;;2337281;53;20909;-69
2023/03/31 02:22:48;;;;;;;4.25;1.65;;;16.40;65.20;;;;;;2613901;52;21007;-69
2023/03/31 02:25:18;;;;;;;3.20;1.30;;;16.40;65.30;;;;;;2614231;52;20955;-69
2023/03/31 02:27:55;;;;;;;4.78;1.80;;;16.30;65.30;;;;;;2614493;52;21390;-69
2023/03/31 02:30:21;;;;;;;6.47;1.98;;;16.30;65.10;;;;;;2363416;54;21373;-70
2023/03/31 02:32:47;;;;;;;4.95;1.40;;;16.30;65.40;;;;;;2363632;54;20936;-70
2023/03/31 02:35:18;;;;;;;3.65;1.40;;;16.30;65.40;;;;;;2614552;52;21758;-68
2023/03/31 02:37:44;;;;;;;4.25;1.70;;;16.30;65.40;;;;;;2613713;52;20977;-69
2023/03/31 02:40:18;;;;;;;5.78;1.70;;;16.30;65.50;;;;;;2613325;52;21028;-69
2023/03/31 02:42:44;;;;;;;5.05;2.00;;;16.20;65.00;;;;;;2613388;52;21032;-69
2023/03/31 02:45:52;;;;;;;3.58;1.55;;;16.20;65.40;;;;;;2362617;54;20905;-69
2023/03/31 02:49:20;;;;;;;5.47;1.90;;;16.20;64.60;;;;;;2362874;54;20924;-69
2023/03/31 03:01:50;;;;;;;5.75;2.05;;;16.20;64.20;;;;;;2340104;54;21033;-68
2023/03/31 03:04:36;;;;;;;3.42;1.25;;;16.20;64.50;;;;;;2364386;54;20973;-69
2023/03/31 03:07:25;;;;;;;4.00;1.62;;;16.10;65.10;;;;;;2615339;52;21052;-66
2023/03/31 03:10:07;;;;;;;5.65;2.10;;;16.10;65.60;;;;;;2586402;52;20971;-69
2023/03/31 03:12:57;;;;;;;4.10;2.00;;;16.00;65.20;;;;;;2364292;54;20929;-69
2023/03/31 03:15:43;;;;;;;5.18;1.92;;;16.00;64.90;;;;;;2364660;54;20893;-69
2023/03/31 03:18:12;;;;;;;5.62;2.28;;;16.00;65.70;;;;;;2615029;52;20901;-69
2023/03/31 03:20:39;;;;;;;6.62;2.97;;;16.00;65.90;;;;;;2364481;54;20976;-69
2023/03/31 03:23:05;;;;;;;3.53;1.80;;;16.00;65.80;;;;;;2363951;54;21355;-69
2023/03/31 03:25:32;;;;;;;5.85;2.30;;;16.00;65.80;;;;;;2615965;52;20967;-69
2023/03/31 03:27:59;;;;;;;5.07;2.05;;;15.90;65.80;;;;;;2355095;54;20998;-69
2023/03/31 03:30:25;;;;;;;5.35;2.00;;;16.00;65.90;;;;;;2582317;53;20978;-69
2023/03/31 03:32:53;;;;;;;5.15;2.30;;;16.00;66.60;;;;;;2585929;52;21385;-69
2023/03/31 03:35:20;;;;;;;5.62;2.20;;;16.00;65.90;;;;;;2615404;52;20972;-69
2023/03/31 03:37:46;;;;;;;4.65;2.08;;;16.00;66.00;;;;;;2615353;52;21278;-69
2023/03/31 03:40:15;;;;;;;5.62;2.42;;;16.00;65.90;;;;;;2363661;54;20945;-69
2023/03/31 03:42:41;;;;;;;6.62;2.65;;;16.00;66.00;;;;;;2363909;54;20921;-69
2023/03/31 03:45:09;;;;;;;7.25;2.60;;;16.00;66.00;;;;;;2362948;54;21419;-69
2023/03/31 03:47:36;;;;;;;5.87;2.62;;;16.00;65.90;;;;;;2615492;52;20909;-69
2023/03/31 03:50:05;;;;;;;8.45;2.60;;;16.00;66.00;;;;;;2363677;54;20893;-69
2023/03/31 03:52:31;;;;;;;7.30;2.47;;;16.00;65.90;;;;;;2364192;54;21025;-69
2023/03/31 03:55:00;;;;;;;6.32;2.47;;;16.10;66.00;;;;;;2342144;54;21040;-69
2023/03/31 03:57:27;;;;;;;4.87;2.05;;;16.10;65.90;;;;;;2363264;54;20957;-69
2023/03/31 03:59:53;;;;;;;6.87;2.90;;;16.10;66.00;;;;;;2615009;52;20966;-68
2023/03/31 04:02:20;;;;;;;5.70;2.50;;;16.10;66.10;;;;;;2363706;54;21450;-69
2023/03/31 04:04:46;;;;;;;5.32;2.28;;;16.10;66.10;;;;;;2364420;54;20929;-69
2023/03/31 04:07:13;;;;;;;4.00;2.35;;;16.10;66.10;;;;;;2363939;54;21092;-70
2023/03/31 04:09:39;;;;;;;4.00;2.00;;;16.10;66.30;;;;;;2364162;53;21373;-69
2023/03/31 04:12:05;;;;;;;4.18;1.83;;;16.20;66.50;;;;;;2364159;54;21422;-68
2023/03/31 04:14:32;;;;;;;4.30;1.77;;;16.20;66.60;;;;;;2583226;52;20917;-70
2023/03/31 04:16:58;;;;;;;4.15;1.77;;;16.20;66.60;;;;;;2363837;54;20929;-70
2023/03/31 04:19:28;;;;;;;6.40;2.05;;;16.30;66.80;;;;;;2364565;54;20953;-71
2023/03/31 04:22:01;;;;;;;5.70;2.30;;;16.30;66.70;;;;;;2615369;52;21384;-68
2023/03/31 04:24:31;;;;;;;6.75;1.85;;;16.30;66.80;;;;;;2342774;54;20985;-70
2023/03/31 04:26:59;;;;;;;6.40;2.42;;;16.30;66.80;;;;;;2362801;54;20921;-69
2023/03/31 04:29:25;;;;;;;5.55;2.35;;;16.30;66.60;;;;;;2364902;54;20959;-69
2023/03/31 04:31:57;;;;;;;4.30;2.05;;;16.30;66.60;;;;;;2615068;52;20980;-70
2023/03/31 04:34:25;;;;;;;3.50;1.70;;;16.30;66.60;;;;;;2616294;52;20901;-71
2023/03/31 04:36:54;;;;;;;4.45;2.08;;;16.30;66.70;;;;;;2364224;54;20933;-69
2023/03/31 04:39:29;;;;;;;4.65;2.03;;;16.30;66.70;;;;;;2615516;52;20913;-69
2023/03/31 04:41:58;;;;;;;4.62;2.12;;;16.30;66.80;;;;;;2615259;52;20941;-67
2023/03/31 04:44:25;;;;;;;5.32;2.60;;;16.30;66.50;;;;;;2612112;52;20958;-67
2023/03/31 04:46:51;;;;;;;7.03;2.65;;;16.30;66.60;;;;;;2362361;54;20937;-68
2023/03/31 04:49:17;;;;;;;6.35;2.60;;;16.30;66.60;;;;;;2363648;54;20910;-68
2023/03/31 04:51:45;;;;;;;4.18;2.28;;;16.30;66.50;;;;;;2614894;52;20957;-69
2023/03/31 04:54:11;;;;;;;4.43;2.30;;;16.40;66.70;;;;;;2363355;54;20920;-67
2023/03/31 04:56:37;;;;;;;6.37;2.45;;;16.30;66.60;;;;;;2363625;54;20913;-67
2023/03/31 04:59:04;;;;;;;5.75;2.47;;;16.30;66.60;;;;;;2363551;54;20945;-67
2023/03/31 05:01:34;;;;;;;4.05;2.25;;;16.30;66.60;;;;;;2364336;54;20989;-68
2023/03/31 05:04:02;;;;;;;6.53;2.40;;;16.20;66.50;;;;;;2363694;54;21660;-68
2023/03/31 05:06:30;;;;;;;6.43;2.35;;;16.20;66.50;;;;;;2363943;54;20960;-70
2023/03/31 05:08:57;;;;;;;7.37;2.70;;;16.20;66.60;;;;;;2615388;52;20913;-67
2023/03/31 05:11:23;;;;;;;5.85;2.42;;;16.20;66.60;;;;;;2363592;54;20953;-69
2023/03/31 05:13:50;;;;;;;6.22;2.15;;;16.20;66.70;;;;;;2340283;54;21019;-68
2023/03/31 05:16:17;;;;;;;5.57;2.90;;;16.20;66.80;;;;;;2615107;52;20941;-67
2023/03/31 05:18:43;;;;;;;8.57;2.90;;;16.10;66.70;;;;;;2614853;52;20933;-67
2023/03/31 05:21:14;;;;;;;7.12;2.80;;;16.10;66.70;;;;;;2363054;54;20948;-67
2023/03/31 05:23:41;;;;;;;6.12;2.42;;;16.10;66.70;;;;;;2363959;54;20993;-67
2023/03/31 05:26:07;;;;;;;6.30;2.62;;;16.00;66.80;;;;;;2614804;52;20917;-67
2023/03/31 05:28:34;;;;;;;7.78;3.12;;;16.10;67.10;;;;;;2363796;54;20981;-67
2023/03/31 05:31:01;;;;;;;6.43;2.40;;;16.00;67.10;;;;;;2363763;54;20972;-67
2023/03/31 05:33:27;;;;;;;6.00;2.40;;;16.00;67.20;;;;;;2615325;52;21009;-67
2023/03/31 05:35:54;;;;;;;6.12;2.55;;;16.00;67.40;;;;;;2615110;52;20945;-67
2023/03/31 05:38:20;;;;;;;6.07;2.60;;;15.90;67.30;;;;;;2363690;54;20940;-67
2023/03/31 05:40:47;;;;;;;7.80;2.55;;;15.90;67.40;;;;;;2364198;54;20928;-67
2023/03/31 05:43:13;;;;;;;5.95;2.80;;;15.90;67.40;;;;;;2364039;54;20897;-67
2023/03/31 05:45:40;;;;;;;6.05;2.33;;;15.90;67.40;;;;;;2363328;54;21017;-67
2023/03/31 05:48:06;;;;;;;6.00;2.55;;;15.90;67.40;;;;;;2363165;54;20929;-67
2023/03/31 05:50:32;;;;;;;4.47;2.60;;;15.90;67.50;;;;;;2349811;54;20925;-66
2023/03/31 05:53:00;;;;;;;6.12;2.97;;;15.80;67.60;;;;;;2604349;52;20961;-67
2023/03/31 05:55:26;;;;;;;7.03;3.03;;;15.80;67.90;;;;;;2364424;54;21051;-67
2023/03/31 05:57:53;;;;;;;6.35;2.37;;;15.70;68.00;;;;;;2615579;52;20992;-67
2023/03/31 06:00:19;;;;;;;5.50;2.45;;;15.70;68.30;;;;;;2345289;54;21939;-66
2023/03/31 06:02:46;;;;;;;7.80;3.30;;;15.70;68.40;;;;;;2358943;54;20965;-67
2023/03/31 06:05:12;;;;;;;6.25;3.15;;;15.60;69.20;;;;;;2615069;52;20921;-67
2023/03/31 06:07:39;;;;;;;6.78;3.08;;;15.60;68.60;;;;;;2615353;52;20952;-66
2023/03/31 06:10:07;;;;;;;5.75;2.90;;;15.60;68.70;;;;;;2363671;54;21022;-66
2023/03/31 06:12:33;;;;;;;4.72;2.45;;;15.50;68.70;;;;;;2585669;52;21036;-67
2023/03/31 06:15:00;;;;;;;5.32;2.60;;;15.50;69.00;;;;;;2613026;52;21013;-67
2023/03/31 06:17:26;;;;;;;5.82;2.47;;;15.50;69.20;;;;;;2615367;52;21008;-67
2023/03/31 06:19:53;;;;;;;5.65;2.30;;;15.40;69.30;;;;;;2588878;52;20964;-67
2023/03/31 06:22:20;;;;;;;5.95;2.50;;;15.40;69.40;;;;;;2609330;52;21665;-67
2023/03/31 06:24:49;;;;;;;5.50;2.37;;;15.40;69.50;;;;;;2364093;54;21334;-66
2023/03/31 06:27:15;;;;;;;4.95;2.10;;;15.40;69.50;;;;;;2364077;54;21000;-66
2023/03/31 06:29:43;;;;;;;4.37;2.35;;;15.30;69.40;;;;;;2606727;52;20948;-66
2023/03/31 06:32:12;;;;;;;5.10;2.65;;;15.30;69.40;;;;;;2350059;54;21118;-66
2023/03/31 06:34:38;;;;;;;5.15;2.50;;;15.30;69.40;;;;;;2349712;54;21589;-67
2023/03/31 06:37:06;;;;;;;3.87;2.00;;;15.30;69.50;;;;;;2349649;54;21679;-66
2023/03/31 06:39:33;;;;;;;4.28;2.20;;;15.30;69.50;;;;;;2349727;54;20953;-66
2023/03/31 06:41:59;;;;;;;5.43;2.67;;;15.30;69.60;;;;;;2349616;54;22191;-67
2023/03/31 06:44:25;;;;;;;8.40;4.12;;;15.30;69.80;;;;;;2350069;54;20964;-67
2023/03/31 06:46:52;;;;;;;8.43;4.57;;;15.20;69.70;;;;;;2598474;52;21287;-67
2023/03/31 06:49:18;;;;;;;7.85;4.72;;;15.30;69.90;;;;;;2349092;54;20965;-67
2023/03/31 06:51:44;;;;;;;5.47;3.30;;;15.20;69.90;;;;;;2349398;54;21407;-67
2023/03/31 06:54:12;;;;;;;5.37;2.65;;;15.20;70.00;;;;;;2348712;54;20965;-67
2023/03/31 06:56:38;;;;;;;5.85;2.80;;;15.20;70.10;;;;;;2348459;54;20965;-67
2023/03/31 06:59:05;;;;;;;4.40;2.00;;;15.30;70.40;;;;;;2327673;54;21103;-67
2023/03/31 07:01:36;;;;;;;3.85;1.80;;;15.20;70.40;;;;;;2349455;54;20952;-67
2023/03/31 07:04:03;;;;;;;3.58;1.65;;;15.10;70.40;;;;;;2349339;54;20996;-67
2023/03/31 07:06:29;;;;;;;3.78;1.73;;;15.20;70.60;;;;;;2599204;52;20961;-67
2023/03/31 07:08:58;;;;;;;3.75;1.77;;;15.20;70.70;;;;;;2349849;54;20992;-66
2023/03/31 07:11:24;;;;;;;4.30;1.80;;;15.20;71.50;;;;;;2598849;52;20956;-67
2023/03/31 07:13:51;;;;;;;2.78;1.30;;;15.20;70.80;;;;;;2349285;54;22218;-67
2023/03/31 07:16:17;;;;;;;2.72;1.17;;;15.20;70.80;;;;;;2598682;52;21646;-67
2023/03/31 07:18:44;;;;;;;2.60;1.23;;;15.20;70.60;;;;;;2599174;52;20937;-68
2023/03/31 07:21:10;;;;;;;2.12;1.00;;;15.20;70.40;;;;;;2349791;54;20973;-68
2023/03/31 07:23:36;;;;;;;3.53;1.35;;;15.20;71.00;;;;;;2349556;54;21523;-69
2023/03/31 07:26:03;;;;;;;3.25;1.55;;;15.20;70.40;;;;;;2349898;54;21571;-69
2023/03/31 07:28:32;;;;;;;2.92;1.10;;;15.20;70.50;;;;;;2350212;54;21320;-67
2023/03/31 07:30:58;;;;;;;2.83;1.02;;;15.20;70.50;;;;;;2598310;52;21429;-69
2023/03/31 07:33:25;;;;;;;2.60;1.20;;;15.20;70.50;;;;;;2599052;52;21048;-67
2023/03/31 07:35:51;;;;;;;2.40;1.05;;;15.30;70.60;;;;;;2350524;54;21533;-67
2023/03/31 07:38:25;;;;;;;3.85;2.33;;;15.30;70.60;;;;;;2599094;52;21079;-68
2023/03/31 07:40:52;;;;;;;4.57;1.98;;;15.30;70.60;;;;;;2597933;52;20929;-68
2023/03/31 07:43:24;;;;;;;3.65;1.90;;;15.30;70.50;;;;;;2598956;52;20956;-69
2023/03/31 07:45:50;;;;;;;3.92;1.58;;;15.30;70.50;;;;;;2597571;52;21328;-68
2023/03/31 07:48:17;;;;;;;2.83;1.27;;;15.40;70.80;;;;;;2598468;52;20976;-68
2023/03/31 07:50:43;;;;;;;3.12;1.20;;;15.40;70.90;;;;;;2326233;54;21004;-68
2023/03/31 07:53:09;;;;;;;2.60;0.93;;;15.40;70.90;;;;;;2334923;54;20972;-68
2023/03/31 07:55:36;;;;;;;2.60;1.20;;;15.50;71.20;;;;;;2341146;54;20988;-69
2023/03/31 07:58:02;;;;;;;2.58;1.00;;;15.50;71.20;;;;;;2599383;52;21115;-69
2023/03/31 08:00:28;;;;;;;3.35;1.00;;;15.60;71.30;;;;;;2349895;54;21036;-69
2023/03/31 08:02:54;;;;;;;2.25;1.00;;;15.60;71.50;;;;;;2599258;52;21021;-68
2023/03/31 08:05:21;;;;;;;2.75;0.90;;;15.60;71.40;;;;;;2598971;52;21958;-68
2023/03/31 08:07:48;;;;;;;2.22;0.82;;;15.70;71.60;;;;;;2349517;54;21486;-68
2023/03/31 08:10:17;;;;;;;3.62;1.05;;;15.70;71.40;;;;;;2598230;52;20948;-68
2023/03/31 08:12:44;;;;;;;3.58;1.12;;;15.80;71.40;;;;;;2599270;52;21008;-69
2023/03/31 08:15:10;;;;;;;1.92;0.90;;;15.70;71.40;;;;;;2349470;54;21020;-68
2023/03/31 08:17:37;;;;;;;3.12;0.93;;;15.90;71.30;;;;;;2349717;54;21020;-68
2023/03/31 08:20:07;;;;;;;3.28;0.75;;;16.00;71.30;;;;;;2349587;54;22036;-70
2023/03/31 08:22:34;;;;;;;3.17;0.82;;;16.00;71.40;;;;;;2349243;54;22106;-69
2023/03/31 08:25:03;;;;;;;2.25;0.95;;;16.10;71.30;;;;;;2349277;54;20933;-68
2023/03/31 08:27:34;;;;;;;2.92;0.90;;;16.20;71.40;;;;;;2579905;52;21606;-68
2023/03/31 08:30:03;;;;;;;4.45;1.00;;;16.20;71.10;;;;;;2339524;54;21000;-69
2023/03/31 08:32:32;;;;;;;3.47;1.00;;;16.30;71.30;;;;;;2598849;52;21040;-69
2023/03/31 08:34:59;;;;;;;2.10;0.68;;;16.30;70.70;;;;;;2349693;54;21008;-69
2023/03/31 08:37:27;;;;;;;2.05;0.62;;;16.40;70.90;;;;;;2599298;52;20956;-68
2023/03/31 08:39:54;;;;;;;2.22;0.90;;;16.40;70.80;;;;;;2349513;54;20949;-69
2023/03/31 08:42:34;;;;;;;2.67;1.00;;;16.40;70.90;;;;;;2349341;54;20921;-69
2023/03/31 08:45:56;;;;;;;3.28;1.00;;;16.50;70.80;;;;;;2349726;54;21052;-69
2023/03/31 08:48:31;;;;;;;2.70;0.90;;;16.50;70.40;;;;;;2574395;52;20953;-68
2023/03/31 08:51:08;;;;;;;3.12;1.30;;;16.60;70.60;;;;;;2594128;52;20936;-69
2023/03/31 08:53:43;;;;;;;3.40;1.10;;;16.70;70.60;;;;;;2599092;52;21056;-69
2023/03/31 08:56:16;;;;;;;3.42;0.98;;;16.70;70.80;;;;;;2599433;52;20976;-68
2023/03/31 08:58:47;;;;;;;3.37;1.45;;;16.70;70.60;;;;;;2599331;52;20929;-68
2023/03/31 09:03:08;;;;;;;5.12;1.77;;;16.80;71.00;;;;;;2599050;52;20932;-69
2023/03/31 09:05:56;;;;;;;5.25;1.33;;;16.90;68.70;;;;;;2599165;52;20961;-69
2023/03/31 09:08:34;;;;;;;6.62;1.10;;;16.90;70.50;;;;;;2349728;54;20993;-69
2023/03/31 09:11:55;;;;;;;4.03;1.17;;;17.00;69.50;;;;;;2598457;52;20996;-70
2023/03/31 09:14:41;;;;;;;5.55;1.50;;;17.00;68.40;;;;;;2349069;54;22255;-68
2023/03/31 09:17:26;;;;;;;4.53;0.90;;;17.10;68.70;;;;;;2599498;52;20933;-68
2023/03/31 09:20:00;;;;;;;5.53;1.40;;;17.10;68.90;;;;;;2599456;52;20921;-69
2023/03/31 09:22:41;;;;;;;5.05;1.20;;;17.00;69.10;;;;;;2349361;54;20929;-68
2023/03/31 09:25:14;;;;;;;6.50;1.33;;;17.10;69.50;;;;;;2599247;52;21437;-68
2023/03/31 09:27:41;;;;;;;6.65;1.42;;;17.20;68.90;;;;;;2349394;54;20952;-68
2023/03/31 09:30:31;;;;;;;7.47;1.27;;;17.10;68.60;;;;;;2599502;52;20932;-69
2023/03/31 09:33:30;;;;;;;6.15;1.27;;;17.30;67.90;;;;;;2598899;52;21067;-69
2023/03/31 09:35:57;;;;;;;5.65;1.25;;;17.30;68.00;;;;;;2599162;52;21032;-68
2023/03/31 09:38:28;;;;;;;6.85;1.80;;;17.40;69.20;;;;;;2598283;52;20909;-68
2023/03/31 09:40:58;;;;;;;7.95;1.20;;;17.40;69.00;;;;;;2351846;54;21087;-69
2023/03/31 09:43:25;;;;;;;5.37;1.20;;;17.40;68.20;;;;;;2598973;52;20944;-68
2023/03/31 09:45:52;;;;;;;6.90;1.30;;;17.50;68.50;;;;;;2599594;52;20921;-69
2023/03/31 09:48:33;;;;;;;6.40;1.35;;;17.50;67.60;;;;;;2349081;54;22090;-69
2023/03/31 09:51:15;;;;;;;4.45;0.85;;;17.60;67.90;;;;;;2598853;52;20993;-69
2023/03/31 09:53:52;;;;;;;6.40;1.10;;;17.60;67.10;;;;;;2599179;52;21001;-68
2023/03/31 09:56:52;;;;;;;6.43;1.20;;;17.60;67.20;;;;;;2349271;54;20973;-69
2023/03/31 09:59:23;;;;;;;9.13;1.40;;;17.70;65.40;;;;;;2348985;54;21477;-69
2023/03/31 10:01:50;;;;;;;4.18;1.00;;;17.80;68.00;;;;;;2599563;52;20996;-69
2023/03/31 10:04:24;;;;;;;6.72;1.40;;;17.80;67.80;;;;;;2599217;52;21081;-68
2023/03/31 10:06:53;;;;;;;4.75;1.15;;;17.80;67.00;;;;;;2349686;54;21260;-69
2023/03/31 10:09:23;;;;;;;6.22;1.30;;;17.80;67.60;;;;;;2599204;52;20961;-69
2023/03/31 10:12:03;;;;;;;6.00;1.10;;;17.90;67.70;;;;;;2348725;54;20958;-70
2023/03/31 10:14:46;;;;;;;4.32;0.90;;;17.90;66.80;;;;;;2331044;54;20948;-69
2023/03/31 10:17:14;;;;;;;3.72;0.82;;;18.00;67.10;;;;;;2349512;54;20917;-68
2023/03/31 10:19:50;;;;;;;4.07;0.93;;;17.90;67.90;;;;;;2349364;54;20953;-69
2023/03/31 10:22:26;;;;;;;3.70;1.00;;;18.00;67.40;;;;;;2599024;52;20929;-68
2023/03/31 10:24:53;;;;;;;3.90;0.82;;;18.00;66.60;;;;;;2566252;53;21942;-69
2023/03/31 10:27:29;;;;;;;4.40;0.77;;;18.10;67.90;;;;;;2322526;53;21203;-68
2023/03/31 10:29:57;;;;;;;3.55;0.70;;;18.10;65.20;;;;;;2301776;54;20945;-67
2023/03/31 10:32:33;;;;;;;1.77;0.57;;;17.90;61.50;;;;;;2323071;53;20919;-68
2023/03/31 10:35:33;;;;;;;0.70;0.28;;;17.70;59.50;;;;;;2566878;52;21047;-68
2023/03/31 10:38:41;;;;;;;2.72;0.60;;;17.30;58.70;;;;;;2606242;52;20952;-66
2023/03/31 10:41:07;;;;;;;1.37;0.45;;;17.00;59.20;;;;;;2606316;52;21577;-66
2023/03/31 10:43:41;;;;;;;2.80;0.82;;;16.70;59.70;;;;;;2355556;53;20916;-68
2023/03/31 10:46:07;;;;;;;1.48;0.40;;;16.30;59.50;;;;;;2355116;54;20916;-67
2023/03/31 10:48:37;;;;;;;2.50;0.60;;;16.00;60.50;;;;;;2355336;53;20972;-69
2023/03/31 10:51:13;;;;;;;2.35;0.40;;;15.70;61.00;;;;;;2605943;52;21576;-72
2023/03/31 10:53:45;;;;;;;1.77;0.45;;;15.40;61.50;;;;;;2355262;54;21868;-69
2023/03/31 10:56:34;;;;;;;2.30;0.52;;;15.20;62.20;;;;;;2606470;52;21080;-72
2023/03/31 11:02:49;;;;;;;2.03;0.47;;;14.90;62.30;;;;;;2605954;52;20932;-70
2023/03/31 11:07:55;;;;;;;1.27;0.50;;;14.60;62.40;;;;;;2355468;54;20944;-72
2023/03/31 11:10:58;;;;;;;2.60;0.60;;;14.20;63.50;;;;;;2604748;52;21092;-71
2023/03/31 11:16:04;;;;;;;1.10;0.45;;;14.10;65.00;;;;;;2354684;53;21228;-72
2023/03/31 11:18:52;;;;;;;;;;;14.00;66.10;;;;;;2610576;52;21032;-72
2023/03/31 11:21:32;;;;;;;1.02;0.40;;;13.90;65.60;;;;;;2605325;52;20082;-70
2023/03/31 11:25:41;;;;;;;1.15;0.30;;;13.80;67.20;;;;;;2341739;53;21111;-70
2023/03/31 11:28:32;;;;;;;0.80;0.30;;;13.70;67.30;;;;;;2605519;52;20940;-72
2023/03/31 11:38:00;;;;;;;1.23;0.30;;;13.70;68.20;;;;;;2355184;53;20972;-71
2023/03/31 11:41:20;;;;;;;1.90;0.57;;;13.60;67.90;;;;;;2360134;53;21011;-72
2023/03/31 11:43:48;;;;;;;1.52;0.43;;;13.70;69.10;;;;;;2359891;53;20972;-70
2023/03/31 11:46:45;;;;;;;1.65;0.50;;;13.70;70.10;;;;;;2359746;54;20985;-71
2023/03/31 11:49:20;;;;;;;1.95;0.50;;;13.70;70.40;;;;;;2610460;52;21020;-72
2023/03/31 11:52:00;;;;;;;1.05;0.50;;;13.70;70.80;;;;;;2360262;54;21528;-72
2023/03/31 11:55:56;;;;;;;1.77;0.50;;;13.70;71.00;;;;;;2585089;52;20985;-71
2023/03/31 11:58:37;;;;;;;1.50;0.40;;;13.80;71.90;;;;;;2360058;53;21111;-70
2023/03/31 12:01:14;;;;;;;3.05;0.60;;;13.90;73.30;;;;;;2359679;54;20944;-70
2023/03/31 12:05:13;;;;;;;2.08;0.50;;;14.00;74.20;;;;;;2359828;54;21967;-70
2023/03/31 12:12:12;;;;;;;1.92;0.80;;;14.10;74.50;;;;;;2611052;52;21498;-71
2023/03/31 12:14:57;;;;;;;1.80;0.60;;;14.50;73.50;;;;;;2360009;53;21973;-71
2023/03/31 12:17:30;;;;;;;1.40;0.40;;;14.50;73.50;;;;;;2360637;54;21052;-71
2023/03/31 12:20:00;;;;;;;;;;;14.80;73.80;;;;;;2364051;54;22303;-71
2023/03/31 12:22:38;;;;;;;1.87;0.43;;;15.00;72.60;;;;;;2583160;52;20138;-71
2023/03/31 12:25:09;;;;;;;2.05;0.35;;;14.90;73.10;;;;;;2360044;53;21045;-72
2023/03/31 12:27:40;;;;;;;2.22;0.45;;;15.00;72.90;;;;;;2598075;52;20988;-72
2023/03/31 12:30:28;;;;;;;1.75;0.57;;;15.10;72.60;;;;;;2330278;54;20991;-71
2023/03/31 12:33:14;;;;;;;3.35;0.40;;;15.10;72.50;;;;;;2611223;52;22048;-72
2023/03/31 12:35:52;;;;;;;4.85;0.70;;;15.20;71.60;;;;;;2610901;52;21071;-71
2023/03/31 12:38:40;;;;;;;3.70;0.75;;;15.20;71.40;;;;;;2582757;52;20977;-70
2023/03/31 12:41:25;;;;;;;3.60;0.88;;;15.20;70.50;;;;;;2308661;54;21066;-70
2023/03/31 12:44:26;;;;;;;3.50;0.88;;;15.20;70.30;;;;;;2577026;52;20964;-70
2023/03/31 12:47:48;;;;;;;1.52;0.50;;;15.20;71.30;;;;;;2331488;54;20976;-72
2023/03/31 12:52:01;;;;;;;1.17;0.30;;;15.10;69.20;;;;;;2331948;54;21912;-71
2023/03/31 12:56:01;;;;;;;1.33;0.40;;;15.00;67.70;;;;;;2331872;54;22120;-68
2023/03/31 12:58:41;;;;;;;1.52;0.50;;;14.80;66.70;;;;;;2332559;53;21027;-70
2023/03/31 13:01:17;;;;;;;3.58;0.68;;;14.70;67.50;;;;;;2576685;52;21029;-71
2023/03/31 13:04:32;;;;;;;1.30;0.68;;;14.70;67.60;;;;;;2577457;52;20925;-73
2023/03/31 13:06:59;;;;;;;1.42;0.50;;;14.50;67.90;;;;;;2332649;54;20984;-72
2023/03/31 13:09:46;;;;;;;2.03;0.50;;;14.40;68.70;;;;;;2575541;53;20965;-71
2023/03/31 13:12:17;;;;;;;0.90;0.37;;;14.30;69.20;;;;;;2574442;53;20932;-72
2023/03/31 13:14:45;;;;;;;1.00;0.30;;;14.20;70.30;;;;;;2576514;53;20917;-69
2023/03/31 13:17:34;;;;;;;1.83;0.50;;;14.20;70.90;;;;;;2577307;53;20932;-71
2023/03/31 13:23:35;;;;;;;1.92;0.40;;;14.20;70.90;;;;;;2576802;52;21015;-73
2023/03/31 13:26:01;;;;;;;2.15;0.30;;;14.20;70.50;;;;;;2576924;52;20929;-72
2023/03/31 13:28:38;;;;;;;1.10;0.32;;;14.20;71.80;;;;;;2577667;53;20977;-71
2023/03/31 13:31:05;;;;;;;1.48;0.40;;;14.10;71.50;;;;;;2577881;53;20968;-69
2023/03/31 13:33:56;;;;;;;2.15;0.40;;;14.20;71.90;;;;;;2336252;53;20973;-70
2023/03/31 13:44:05;;;;;;;3.12;0.50;;;14.30;71.50;;;;;;2359113;53;21049;-74
2023/03/31 13:47:47;;;;;;;2.05;0.57;;;14.40;70.70;;;;;;2362845;54;21429;-71
2023/03/31 13:51:54;;;;;;;2.47;0.70;;;14.40;71.20;;;;;;2360157;53;21942;-71
2023/03/31 13:58:04;;;;;;;3.00;0.60;;;14.40;71.30;;;;;;2612124;52;21008;-70
2023/03/31 14:01:55;;;;;;;2.28;0.70;;;14.50;72.40;;;;;;2611422;52;20933;-71
2023/03/31 14:04:48;;;;;;;2.20;0.40;;;14.70;72.70;;;;;;2611785;52;20909;-71
2023/03/31 14:07:17;;;;;;;2.30;0.40;;;14.80;73.60;;;;;;2612401;52;21742;-71
2023/03/31 14:09:48;;;;;;;2.87;0.70;;;14.90;74.50;;;;;;2361003;54;20934;-72
2023/03/31 14:12:28;;;;;;;2.12;0.62;;;14.90;74.90;;;;;;2579868;52;21727;-71
2023/03/31 14:14:56;;;;;;;2.67;0.60;;;15.00;75.10;;;;;;2341767;53;21016;-71
2023/03/31 14:17:26;;;;;;;2.22;0.55;;;15.20;75.50;;;;;;2345094;53;20981;-71
2023/03/31 14:21:52;;;;;;;2.30;0.60;;;15.20;75.20;;;;;;2613349;52;20922;-69
2023/03/31 14:29:41;;;;;;;3.12;0.60;;;15.40;72.90;;;;;;2607654;52;21481;-73
2023/03/31 14:32:28;;;;;;;2.62;0.50;;;15.50;73.10;;;;;;2360030;54;20954;-69
2023/03/31 14:35:27;;;;;;;2.40;0.50;;;15.60;72.40;;;;;;2360406;54;21146;-70
2023/03/31 14:37:55;;;;;;;2.30;0.70;;;15.60;72.00;;;;;;2612428;52;20930;-74
2023/03/31 14:40:21;;;;;;;1.52;0.40;;;15.60;72.60;;;;;;2586102;52;20999;-72